Pagrindinis puslapis
METAR-TAF:

METAR-TAF

Oro uostai :

Cabo Frio, Rio de Janeiro, Brazilija

platuma: 22-55-15S, ilguma: 042-04-17W, Aukštis: 7 m

Dabartinis oras

Ataskaita buvo paskelbta 34 minutes, ne 12:00 UTC
Vėjas 6 kt iš Šiaurės
Temperatūra 22°C
Drėgmė 88%
Slėgis 1023 hPa
Matomumas 10 km arba daugiau
Išsisklaidę debesys ne aukštis 1500 ft
Su prošvaistėmis ne aukštis 2500 ft

METAR: SBCB 041200Z 01006KT 9999 SCT015 BKN025 22/20 Q1023

Laikas: 09:34 (12:34 UTC)

Prognozė

Ataskaita buvo paskelbta 3 valandos ir 34 minutes, ne 09:00 UTC
Prognozė galioja nuo 04 metu 12 UTC su 04 metu 24 UTC
Vėjas 6 kt iš Rytų
Matomumas 10 km arba daugiau
Išsisklaidę debesys ne aukštis 2000 ft

TAF: SBCB 040900Z 0412/0424 09006KT 9999 SCT020 TN21/0412Z TX25/0417Z RMK PEG

Orai ataskaitas ir orų prognozės (METAR, TAF).

turimą stotys yra geltonos ir raudonos taškus žemėlapyje.

Perkelti pele per norėdami pamatyti stoties vardą.

Tada spustelėkite, norėdami matyti oro stebėjimo ir prognozės.

Norėdami pakeisti žemėlapį: spustelėkite ant žalios mygtukų su juodo kryžiaus žemyn,; žalią mygtuką su brūkšneliu, jei norite nutolinti; arba žalių rodyklių gretimoms žemėlapius.


METAR-TAF: